Time;durP1;ratioP1;P1;durP2;ratioP2;P2;SDS_P1;SDS_P2;PMS_P1;PMS_P2;Temp;Humidity;BMP_temperature;BMP_pressure;BME280_temperature;BME280_humidity;BME280_pressure;Samples;Min_cycle;Max_cycle;Signal;HPM_P1;HPM_P2
2022/01/12 00:00:32;;;;;;;9.23;5.28;;;20.50;49.30;;;;;;5031509;28;20085;-60
2022/01/12 00:02:57;;;;;;;7.55;4.63;;;20.40;49.30;;;;;;5031861;28;20455;-60
2022/01/12 00:05:23;;;;;;;6.95;4.13;;;20.40;49.30;;;;;;5031025;28;20049;-60
2022/01/12 00:07:50;;;;;;;7.47;4.43;;;20.40;49.40;;;;;;5032601;28;20045;-60
2022/01/12 00:10:17;;;;;;;7.10;4.67;;;20.40;49.40;;;;;;5031810;28;20052;-60
2022/01/12 00:12:43;;;;;;;8.15;5.07;;;20.40;49.40;;;;;;5031252;28;20128;-60
2022/01/12 00:15:09;;;;;;;10.40;5.20;;;20.40;49.40;;;;;;5031910;28;20125;-60
2022/01/12 00:17:34;;;;;;;7.40;4.35;;;20.40;49.30;;;;;;5031589;28;20045;-60
2022/01/12 00:20:00;;;;;;;8.88;4.68;;;20.30;49.30;;;;;;5034254;28;20049;-60
2022/01/12 00:22:26;;;;;;;6.43;4.03;;;20.30;49.30;;;;;;5035035;28;20045;-60
2022/01/12 00:25:11;;;;;;;8.57;4.68;;;20.30;49.30;;;;;;5035695;28;20068;-60
2022/01/12 00:33:11;;;;;;;9.27;5.00;;;20.20;49.20;;;;;;5035616;28;20477;-60
2022/01/12 00:35:41;;;;;;;7.63;4.72;;;20.30;49.30;;;;;;5034791;28;20045;-59
2022/01/12 00:38:07;;;;;;;8.30;5.05;;;20.30;49.30;;;;;;5035531;28;20049;-60
2022/01/12 00:40:33;;;;;;;8.00;5.05;;;20.20;49.20;;;;;;5034151;28;20111;-60
2022/01/12 00:42:58;;;;;;;7.80;5.15;;;20.20;49.10;;;;;;5035441;28;20040;-59
2022/01/12 00:45:24;;;;;;;7.82;4.80;;;20.20;49.20;;;;;;5034832;28;20049;-59
2022/01/12 00:47:49;;;;;;;8.38;4.88;;;20.20;49.20;;;;;;5016681;28;20049;-60
2022/01/12 00:50:15;;;;;;;8.15;4.80;;;20.20;49.20;;;;;;5034525;28;20045;-60
2022/01/12 00:52:40;;;;;;;8.77;4.82;;;20.20;49.20;;;;;;5034699;28;20045;-59
2022/01/12 00:55:06;;;;;;;8.00;4.70;;;20.10;49.20;;;;;;5034222;28;20085;-59
2022/01/12 00:57:32;;;;;;;7.07;4.53;;;20.20;49.20;;;;;;5034584;28;20479;-60
2022/01/12 00:59:57;;;;;;;7.47;4.60;;;20.10;49.10;;;;;;5034756;28;20473;-60
2022/01/12 01:02:23;;;;;;;9.73;4.90;;;20.10;49.10;;;;;;5033797;28;20049;-60
2022/01/12 01:04:48;;;;;;;8.15;4.50;;;20.10;49.10;;;;;;5034887;28;20091;-60
2022/01/12 01:07:14;;;;;;;7.75;4.20;;;20.10;49.10;;;;;;5034428;28;20064;-60
2022/01/12 01:09:45;;;;;;;6.40;4.20;;;20.10;49.10;;;;;;5033948;28;20080;-60
2022/01/12 01:12:11;;;;;;;6.55;4.57;;;20.00;49.00;;;;;;5034517;28;20119;-60
2022/01/12 01:14:46;;;;;;;7.43;4.20;;;20.00;49.10;;;;;;5034563;28;20393;-60
2022/01/12 01:25:31;;;;;;;8.50;4.10;;;20.00;49.10;;;;;;5034091;28;20053;-60
2022/01/12 01:27:58;;;;;;;6.72;4.30;;;20.00;49.10;;;;;;5034470;28;20057;-60
2022/01/12 01:30:24;;;;;;;6.70;4.10;;;20.00;49.10;;;;;;5033044;28;20127;-60
2022/01/12 01:32:49;;;;;;;7.60;4.00;;;20.00;49.20;;;;;;5034386;28;20156;-60
2022/01/12 01:35:15;;;;;;;7.00;4.45;;;20.00;49.20;;;;;;5034070;28;20100;-60
2022/01/12 01:37:41;;;;;;;7.70;4.10;;;19.90;49.10;;;;;;5033702;28;20052;-60
2022/01/12 01:40:11;;;;;;;8.43;4.60;;;20.00;49.10;;;;;;5034042;28;20049;-60
2022/01/12 01:53:22;;;;;;;7.25;3.90;;;19.90;49.30;;;;;;5033543;28;20049;-60
2022/01/12 01:55:49;;;;;;;6.63;3.88;;;19.90;49.20;;;;;;5033980;28;20055;-60
2022/01/12 01:58:15;;;;;;;5.90;3.53;;;19.90;49.20;;;;;;5032304;28;20064;-59
2022/01/12 02:00:40;;;;;;;6.72;3.80;;;19.90;49.20;;;;;;5016345;28;20068;-60
2022/01/12 02:03:06;;;;;;;5.85;3.25;;;19.90;49.30;;;;;;5033748;28;20501;-60
2022/01/12 02:05:31;;;;;;;6.95;4.03;;;20.00;49.40;;;;;;5032722;28;20464;-60
2022/01/12 02:07:57;;;;;;;5.60;3.80;;;20.00;49.30;;;;;;5033848;28;20091;-60
2022/01/12 02:10:23;;;;;;;6.47;3.78;;;20.00;49.30;;;;;;5033548;28;20120;-60
2022/01/12 02:12:49;;;;;;;5.53;3.42;;;20.00;49.30;;;;;;5032991;28;20128;-60
2022/01/12 02:15:25;;;;;;;6.82;3.60;;;19.90;49.30;;;;;;5032988;28;20057;-60
2022/01/12 02:18:16;;;;;;;5.25;3.75;;;20.00;49.30;;;;;;5033105;28;20045;-60
2022/01/12 02:40:37;;;;;;;5.65;3.63;;;20.00;49.10;;;;;;5031762;28;20057;-59
2022/01/12 02:51:14;;;;;;;5.15;3.58;;;20.10;49.10;;;;;;5032981;28;20049;-60
2022/01/12 02:53:41;;;;;;;4.90;3.30;;;20.10;49.10;;;;;;5032989;28;20064;-60
2022/01/12 02:56:34;;;;;;;6.40;3.47;;;20.10;49.10;;;;;;5032369;28;20041;-59
2022/01/12 02:59:00;;;;;;;5.95;3.53;;;20.10;49.10;;;;;;5028427;28;20406;-59
2022/01/12 03:04:01;;;;;;;5.90;3.20;;;20.10;49.00;;;;;;5012097;28;20056;-59
2022/01/12 03:06:32;;;;;;;6.03;3.58;;;20.10;49.00;;;;;;5012425;28;20048;-59
2022/01/12 03:08:58;;;;;;;5.97;3.45;;;20.10;49.00;;;;;;5012369;28;20048;-59
2022/01/12 03:11:24;;;;;;;5.70;3.33;;;20.10;49.00;;;;;;5012424;28;20045;-59
2022/01/12 03:13:50;;;;;;;4.80;3.20;;;20.10;49.00;;;;;;5013017;28;20085;-60
2022/01/12 03:16:22;;;;;;;5.47;2.85;;;20.10;49.00;;;;;;5011672;28;20085;-60
2022/01/12 03:18:49;;;;;;;4.97;3.20;;;20.10;49.00;;;;;;5013086;28;20046;-60
2022/01/12 03:21:18;;;;;;;5.32;3.00;;;20.20;49.00;;;;;;5012514;28;20085;-60
2022/01/12 03:23:44;;;;;;;5.20;3.30;;;20.10;49.00;;;;;;5012286;28;20033;-60
2022/01/12 03:26:10;;;;;;;4.28;3.08;;;20.20;49.00;;;;;;5012782;28;20050;-59
2022/01/12 03:28:38;;;;;;;4.70;2.72;;;20.20;49.00;;;;;;4994955;28;20076;-60
2022/01/12 03:38:44;;;;;;;5.25;3.05;;;20.10;49.00;;;;;;4962762;28;20129;-59
2022/01/12 03:41:09;;;;;;;5.90;3.38;;;20.10;49.00;;;;;;5012754;28;20569;-60
2022/01/12 03:43:34;;;;;;;5.22;2.83;;;20.20;49.00;;;;;;5012235;28;20045;-60
2022/01/12 03:46:00;;;;;;;4.97;3.30;;;20.20;49.00;;;;;;5012878;28;20041;-60
2022/01/12 03:48:25;;;;;;;5.30;2.90;;;20.20;49.00;;;;;;5012341;28;20485;-60
2022/01/12 03:50:51;;;;;;;5.47;3.00;;;20.20;49.00;;;;;;5012064;28;20082;-59
2022/01/12 03:53:16;;;;;;;4.63;2.70;;;20.20;49.00;;;;;;5014306;28;20038;-60
2022/01/12 03:55:43;;;;;;;4.25;3.00;;;20.20;49.00;;;;;;5016497;28;20045;-60
2022/01/12 03:58:10;;;;;;;4.68;2.90;;;20.20;49.00;;;;;;5015609;28;20065;-59
2022/01/12 04:00:36;;;;;;;5.22;3.00;;;20.20;49.00;;;;;;5015928;28;20050;-60
2022/01/12 04:03:04;;;;;;;5.03;2.97;;;20.20;49.00;;;;;;5016250;28;20076;-60
2022/01/12 04:08:18;;;;;;;4.72;3.05;;;20.20;49.00;;;;;;5015248;28;20046;-60
2022/01/12 04:08:21;;;;;;;5.00;3.10;;;20.20;49.00;;;;;;5015486;28;20123;-60
2022/01/12 04:10:59;;;;;;;6.00;3.40;;;20.20;49.10;;;;;;4998761;28;20135;-60
2022/01/12 04:13:27;;;;;;;5.30;3.30;;;20.20;49.00;;;;;;5014899;28;20041;-60
2022/01/12 04:15:58;;;;;;;4.30;3.00;;;20.20;49.00;;;;;;5016316;28;20107;-60
2022/01/12 04:18:23;;;;;;;6.63;3.42;;;20.20;49.00;;;;;;5015980;28;20042;-60
2022/01/12 04:20:50;;;;;;;5.72;2.97;;;20.20;49.00;;;;;;4997461;28;20069;-60
2022/01/12 04:23:21;;;;;;;5.47;3.60;;;20.30;49.10;;;;;;5015711;28;20069;-60
2022/01/12 04:25:48;;;;;;;6.63;3.67;;;20.30;49.10;;;;;;5015288;28;20052;-60
2022/01/12 04:28:14;;;;;;;5.65;3.55;;;20.30;49.10;;;;;;4998130;28;20041;-59
2022/01/12 04:30:40;;;;;;;5.30;3.45;;;20.30;49.10;;;;;;5015736;28;20050;-60
2022/01/12 04:33:05;;;;;;;4.55;3.15;;;20.30;49.10;;;;;;4997284;28;20088;-60
2022/01/12 04:35:35;;;;;;;5.70;3.50;;;20.30;49.10;;;;;;5015273;28;20061;-60
2022/01/12 04:38:01;;;;;;;5.85;3.20;;;20.30;49.10;;;;;;5015449;28;20516;-60
2022/01/12 04:40:26;;;;;;;5.35;3.50;;;20.30;49.10;;;;;;5014602;28;20128;-60
2022/01/12 04:42:56;;;;;;;6.10;3.90;;;20.30;49.80;;;;;;5015511;28;20046;-60
2022/01/12 04:50:19;;;;;;;5.78;3.80;;;20.30;49.10;;;;;;5015087;28;20054;-60
2022/01/12 04:52:44;;;;;;;6.03;3.72;;;20.30;49.10;;;;;;5015490;28;20084;-60
2022/01/12 04:55:10;;;;;;;6.47;4.05;;;20.30;49.00;;;;;;5014719;28;20045;-60
2022/01/12 04:57:35;;;;;;;5.57;3.70;;;20.30;49.10;;;;;;5014748;28;20386;-60
2022/01/12 05:00:14;;;;;;;6.80;4.20;;;20.30;49.10;;;;;;5015351;28;20061;-60
2022/01/12 05:08:34;;;;;;;7.03;4.43;;;20.40;49.10;;;;;;5013768;28;20429;-59
2022/01/12 05:13:43;;;;;;;7.80;4.68;;;20.30;49.10;;;;;;5014905;28;20042;-59
2022/01/12 05:16:11;;;;;;;6.68;4.25;;;20.40;49.10;;;;;;5014245;28;20128;-60
2022/01/12 05:18:37;;;;;;;;;;;20.40;49.10;;;;;;5015320;28;20042;-59
2022/01/12 05:21:03;;;;;;;6.85;4.25;;;20.40;49.10;;;;;;5014947;28;19928;-60
2022/01/12 05:23:28;;;;;;;7.55;4.60;;;20.40;49.10;;;;;;4996397;28;20057;-60
2022/01/12 05:25:54;;;;;;;8.65;5.03;;;20.40;49.10;;;;;;5014610;28;20050;-60
2022/01/12 05:28:20;;;;;;;7.53;4.68;;;20.40;49.10;;;;;;5014255;28;20042;-60
2022/01/12 05:30:46;;;;;;;7.13;4.70;;;20.40;49.10;;;;;;5014105;28;20073;-60
2022/01/12 05:33:12;;;;;;;8.68;4.85;;;20.40;49.10;;;;;;5014576;28;20070;-60
2022/01/12 05:35:37;;;;;;;6.97;4.82;;;20.40;49.10;;;;;;5014448;28;20125;-60
2022/01/12 05:38:04;;;;;;;7.63;5.00;;;20.40;49.10;;;;;;5014010;28;20048;-60
2022/01/12 05:40:30;;;;;;;8.30;5.20;;;20.40;49.10;;;;;;5014210;28;20050;-60
2022/01/12 05:42:56;;;;;;;7.30;5.10;;;20.40;49.10;;;;;;5013553;28;20038;-60
2022/01/12 05:45:22;;;;;;;6.85;4.80;;;20.40;49.10;;;;;;5014274;28;20045;-60
2022/01/12 05:50:14;;;;;;;7.13;4.70;;;20.40;49.00;;;;;;5012866;28;20050;-59
2022/01/12 05:52:40;;;;;;;7.03;4.93;;;20.40;49.10;;;;;;5014382;28;20042;-60
2022/01/12 05:55:07;;;;;;;7.50;4.68;;;20.40;49.00;;;;;;5014296;28;20088;-59
2022/01/12 05:57:33;;;;;;;6.95;4.82;;;20.40;49.00;;;;;;5012545;28;20378;-60
2022/01/12 05:59:59;;;;;;;8.35;5.32;;;20.40;49.10;;;;;;5014331;28;20504;-60
2022/01/12 06:02:24;;;;;;;7.10;4.50;;;20.50;49.10;;;;;;5013676;28;20099;-60
2022/01/12 06:04:50;;;;;;;7.80;5.13;;;20.40;49.10;;;;;;5013159;28;20121;-60
2022/01/12 06:07:16;;;;;;;7.38;5.05;;;20.40;49.00;;;;;;5013621;28;20103;-60
2022/01/12 06:09:41;;;;;;;7.97;4.68;;;20.40;49.00;;;;;;5014092;28;20057;-59
2022/01/12 06:12:07;;;;;;;6.47;4.38;;;20.40;49.00;;;;;;5012980;28;20053;-59
2022/01/12 06:14:33;;;;;;;6.15;4.32;;;20.50;49.10;;;;;;5013807;28;20042;-60
2022/01/12 06:16:58;;;;;;;7.38;5.00;;;20.40;49.10;;;;;;5013050;28;20516;-59
2022/01/12 06:19:24;;;;;;;7.10;4.30;;;20.50;49.10;;;;;;5012402;28;20041;-60
2022/01/12 06:21:49;;;;;;;7.07;4.60;;;20.40;49.00;;;;;;4996269;28;20050;-59
2022/01/12 06:24:15;;;;;;;7.38;5.00;;;20.40;49.00;;;;;;5013418;28;20436;-60
2022/01/12 06:26:42;;;;;;;6.93;4.75;;;20.50;49.10;;;;;;5013108;28;20405;-60
2022/01/12 06:31:43;;;;;;;6.65;4.55;;;20.50;49.10;;;;;;5013496;28;20042;-60
2022/01/12 06:34:09;;;;;;;7.40;4.85;;;20.50;49.00;;;;;;5012659;28;20375;-60
2022/01/12 06:36:34;;;;;;;6.65;4.15;;;20.50;49.00;;;;;;4995761;28;20540;-60
2022/01/12 06:39:00;;;;;;;6.82;4.40;;;20.50;49.10;;;;;;5013664;28;20041;-59
2022/01/12 06:41:25;;;;;;;6.40;4.28;;;20.50;49.00;;;;;;5012458;28;20049;-60
2022/01/12 06:43:51;;;;;;;7.18;4.35;;;20.50;49.00;;;;;;5013260;28;20405;-60
2022/01/12 06:46:23;;;;;;;6.55;4.38;;;20.50;49.00;;;;;;4978170;28;20048;-60
2022/01/12 06:48:48;;;;;;;6.50;4.18;;;20.50;49.00;;;;;;5013415;28;20037;-60
2022/01/12 06:51:14;;;;;;;7.00;4.60;;;20.50;49.00;;;;;;5013030;28;20129;-59
2022/01/12 06:53:40;;;;;;;6.70;4.50;;;20.50;49.00;;;;;;5012633;28;20080;-60
2022/01/12 06:56:05;;;;;;;7.20;4.10;;;20.50;49.00;;;;;;5013123;28;20447;-60
2022/01/12 06:58:31;;;;;;;7.53;4.30;;;20.50;49.00;;;;;;5012667;28;20119;-59
2022/01/12 07:00:56;;;;;;;7.55;4.78;;;20.50;49.00;;;;;;5012245;28;20038;-60
2022/01/12 07:03:22;;;;;;;6.43;4.13;;;20.50;49.00;;;;;;5012966;28;20050;-60
2022/01/12 07:05:47;;;;;;;7.38;4.30;;;20.50;49.00;;;;;;5012772;28;20049;-60
2022/01/12 07:08:13;;;;;;;6.30;3.88;;;20.50;48.90;;;;;;5011964;28;20042;-60
2022/01/12 07:10:39;;;;;;;6.85;4.00;;;20.60;49.00;;;;;;5012645;28;20042;-60
2022/01/12 07:13:04;;;;;;;6.43;4.32;;;20.60;49.00;;;;;;5013165;28;20041;-60
2022/01/12 07:15:30;;;;;;;6.65;4.18;;;20.50;49.10;;;;;;5011820;28;20050;-59
2022/01/12 07:17:55;;;;;;;6.55;4.03;;;20.60;49.10;;;;;;5013050;28;20104;-60
2022/01/12 07:20:21;;;;;;;6.32;3.88;;;20.50;49.10;;;;;;5012630;28;20054;-60
2022/01/12 07:22:46;;;;;;;6.43;3.95;;;20.60;49.10;;;;;;4994713;28;20038;-59
2022/01/12 07:25:12;;;;;;;8.25;3.95;;;20.60;49.10;;;;;;5013629;28;20531;-59
2022/01/12 07:27:39;;;;;;;6.47;3.92;;;20.60;49.20;;;;;;5023153;28;20051;-59
2022/01/12 07:30:05;;;;;;;7.10;3.83;;;20.60;49.30;;;;;;5016197;28;20050;-59
2022/01/12 07:32:31;;;;;;;7.50;4.28;;;20.60;49.50;;;;;;5016741;28;20042;-60
2022/01/12 07:34:56;;;;;;;7.50;4.25;;;20.60;49.70;;;;;;5016783;28;20042;-61
2022/01/12 07:37:22;;;;;;;7.68;3.97;;;20.60;49.90;;;;;;5015770;28;20061;-61
2022/01/12 07:39:48;;;;;;;6.78;3.95;;;20.60;50.00;;;;;;5016924;28;20053;-60
2022/01/12 07:42:14;;;;;;;5.60;3.20;;;20.60;50.00;;;;;;5016429;28;20038;-61
2022/01/12 07:44:40;;;;;;;7.50;4.05;;;20.60;50.10;;;;;;5015797;28;20133;-61
2022/01/12 07:47:05;;;;;;;7.35;4.18;;;20.60;50.20;;;;;;5016368;28;20120;-60
2022/01/12 07:49:31;;;;;;;7.97;3.67;;;20.60;50.20;;;;;;5015448;28;20054;-60
2022/01/12 07:51:57;;;;;;;9.02;4.18;;;20.60;50.20;;;;;;5023199;28;20041;-59
2022/01/12 07:54:23;;;;;;;6.68;3.80;;;20.70;50.40;;;;;;5035754;28;20094;-59
2022/01/12 07:56:48;;;;;;;5.80;3.78;;;20.60;50.40;;;;;;5034992;28;20820;-59
2022/01/12 07:59:14;;;;;;;8.35;3.72;;;20.70;50.40;;;;;;5035423;28;20064;-59
2022/01/12 08:01:39;;;;;;;6.45;3.85;;;20.60;50.50;;;;;;5022168;28;20049;-59
2022/01/12 08:04:05;;;;;;;7.10;3.70;;;20.60;50.50;;;;;;5018324;28;20099;-59
2022/01/12 08:06:30;;;;;;;7.65;4.03;;;20.70;50.60;;;;;;5026006;28;20961;-59
2022/01/12 08:08:56;;;;;;;7.00;3.97;;;20.70;50.60;;;;;;5025289;28;20038;-59
2022/01/12 08:11:22;;;;;;;5.05;3.50;;;20.70;51.50;;;;;;5024073;28;20095;-59
2022/01/12 08:13:49;;;;;;;7.13;4.18;;;20.70;50.90;;;;;;5026218;28;20054;-59
2022/01/12 08:16:14;;;;;;;7.13;4.10;;;20.70;50.90;;;;;;5035195;28;20049;-59
2022/01/12 08:18:40;;;;;;;6.22;3.67;;;20.70;50.90;;;;;;5035163;28;20504;-59
2022/01/12 08:21:06;;;;;;;7.90;4.07;;;20.70;51.00;;;;;;5017746;28;20038;-59
2022/01/12 08:23:32;;;;;;;5.80;3.65;;;20.70;51.00;;;;;;5035423;28;20145;-60
2022/01/12 08:25:58;;;;;;;5.53;3.38;;;20.70;51.10;;;;;;5035016;28;20056;-59
2022/01/12 08:28:23;;;;;;;7.85;3.67;;;20.80;51.10;;;;;;5035061;28;20049;-59
2022/01/12 08:30:49;;;;;;;5.05;3.20;;;20.70;51.10;;;;;;5035391;28;20099;-58
2022/01/12 08:33:15;;;;;;;6.55;3.67;;;20.70;51.10;;;;;;5033544;28;20373;-60
2022/01/12 08:35:41;;;;;;;6.78;3.63;;;20.70;51.20;;;;;;5020405;28;20525;-59
2022/01/12 08:38:07;;;;;;;4.97;3.33;;;20.80;51.20;;;;;;5015792;28;20107;-59
2022/01/12 08:40:33;;;;;;;5.70;3.55;;;20.80;51.20;;;;;;5013601;28;20089;-60
2022/01/12 08:42:58;;;;;;;6.63;3.60;;;20.80;51.00;;;;;;5014532;28;20041;-60
2022/01/12 08:45:24;;;;;;;6.35;3.60;;;20.80;50.90;;;;;;5015226;28;20511;-60
2022/01/12 08:47:49;;;;;;;6.32;3.53;;;20.80;50.80;;;;;;5013283;28;20069;-59
2022/01/12 08:50:15;;;;;;;8.10;3.40;;;20.80;50.80;;;;;;5015103;28;20042;-59
2022/01/12 08:52:44;;;;;;;6.03;3.47;;;20.80;50.70;;;;;;5015230;28;20038;-60
2022/01/12 08:55:11;;;;;;;11.90;3.45;;;20.80;50.60;;;;;;5015035;28;20041;-59
2022/01/12 08:57:37;;;;;;;7.22;3.63;;;20.80;50.50;;;;;;5013417;28;20042;-62
2022/01/12 09:00:03;;;;;;;6.13;3.78;;;20.80;50.50;;;;;;5014625;28;20412;-61
2022/01/12 09:02:29;;;;;;;7.55;4.00;;;20.80;50.60;;;;;;5013650;28;20038;-60
2022/01/12 09:04:54;;;;;;;8.13;3.70;;;20.80;50.70;;;;;;5013796;28;20095;-61
2022/01/12 09:07:20;;;;;;;6.55;3.60;;;20.80;50.80;;;;;;4996561;28;20053;-60
2022/01/12 09:09:45;;;;;;;6.13;3.60;;;20.80;50.80;;;;;;5003225;28;20394;-60
2022/01/12 09:12:11;;;;;;;8.30;3.45;;;20.80;50.90;;;;;;5014879;28;20050;-60
2022/01/12 09:14:36;;;;;;;6.72;3.70;;;20.90;50.90;;;;;;4994241;28;20046;-60
2022/01/12 09:17:02;;;;;;;7.15;3.90;;;20.80;50.90;;;;;;4995008;28;20479;-60
2022/01/12 09:19:28;;;;;;;7.38;3.80;;;20.90;51.00;;;;;;4995040;28;20494;-59
2022/01/12 09:21:53;;;;;;;6.65;3.80;;;20.80;50.90;;;;;;4993561;28;20474;-59
2022/01/12 09:24:19;;;;;;;7.13;3.50;;;20.90;50.90;;;;;;4994944;28;20052;-59
2022/01/12 09:26:45;;;;;;;7.82;3.78;;;20.90;51.00;;;;;;4995246;28;20057;-59
2022/01/12 09:29:10;;;;;;;10.13;4.20;;;20.90;51.10;;;;;;4994410;28;20048;-60
2022/01/12 09:31:36;;;;;;;8.90;3.80;;;20.90;51.10;;;;;;4998297;28;20060;-60
2022/01/12 09:34:04;;;;;;;9.52;4.28;;;20.90;51.00;;;;;;5013388;28;20092;-60
2022/01/12 09:36:30;;;;;;;;;;;20.90;50.90;;;;;;5011196;28;20378;-60
2022/01/12 09:38:55;;;;;;;8.05;3.70;;;20.90;50.80;;;;;;4995670;28;19929;-60
2022/01/12 09:41:24;;;;;;;6.50;3.72;;;20.90;50.90;;;;;;4994593;28;20046;-60
2022/01/12 09:43:50;;;;;;;7.95;4.15;;;20.90;50.80;;;;;;4994462;28;20096;-60
2022/01/12 09:46:16;;;;;;;10.15;4.40;;;20.90;50.80;;;;;;4997843;28;20053;-59
2022/01/12 09:48:41;;;;;;;6.53;3.92;;;20.90;50.80;;;;;;5006222;28;20046;-59
2022/01/12 09:51:07;;;;;;;8.65;3.78;;;20.90;50.80;;;;;;5013218;28;20514;-59
2022/01/12 09:53:34;;;;;;;8.82;3.90;;;20.80;50.70;;;;;;5013458;28;20045;-59
2022/01/12 09:56:06;;;;;;;7.25;4.05;;;20.90;50.80;;;;;;5013128;28;20046;-59
2022/01/12 09:58:33;;;;;;;9.20;4.07;;;20.90;50.70;;;;;;5006965;28;20073;-60
2022/01/12 10:00:59;;;;;;;6.50;4.15;;;20.90;50.70;;;;;;4994632;28;20082;-60
2022/01/12 10:03:25;;;;;;;6.85;4.50;;;20.90;50.70;;;;;;5003957;28;20057;-59
2022/01/12 10:05:51;;;;;;;6.38;3.70;;;20.90;50.70;;;;;;5013822;28;20050;-60
2022/01/12 10:08:17;;;;;;;7.68;4.65;;;20.90;50.70;;;;;;5013880;28;20046;-58
2022/01/12 10:10:48;;;;;;;7.93;4.38;;;20.80;50.60;;;;;;4995688;28;20049;-59
2022/01/12 10:13:25;;;;;;;8.77;4.53;;;20.90;50.80;;;;;;4993926;28;20137;-60
2022/01/12 10:15:51;;;;;;;8.65;4.97;;;20.90;51.20;;;;;;5008708;28;20576;-60
2022/01/12 10:18:18;;;;;;;7.70;4.60;;;20.90;51.30;;;;;;4992242;28;20046;-60
2022/01/12 10:20:44;;;;;;;7.05;4.75;;;20.90;51.40;;;;;;4993898;28;20046;-60
2022/01/12 10:23:11;;;;;;;9.50;5.15;;;20.90;51.40;;;;;;4994123;28;20109;-60
2022/01/12 10:25:37;;;;;;;6.20;4.28;;;20.90;51.40;;;;;;4993491;28;20073;-60
2022/01/12 10:28:22;;;;;;;7.53;4.65;;;20.90;51.50;;;;;;4994351;28;20394;-59
2022/01/12 10:31:05;;;;;;;9.07;5.15;;;20.90;51.50;;;;;;4994040;28;20054;-60
2022/01/12 10:33:33;;;;;;;9.18;4.20;;;20.90;51.50;;;;;;4993190;28;20156;-60
2022/01/12 10:36:01;;;;;;;8.18;5.00;;;20.90;51.50;;;;;;4993787;28;20070;-61
2022/01/12 10:38:26;;;;;;;9.63;4.20;;;20.90;51.50;;;;;;4991014;28;20054;-58
2022/01/12 10:40:55;;;;;;;9.52;5.03;;;20.90;51.40;;;;;;4993890;28;20076;-59
2022/01/12 10:43:32;;;;;;;11.02;5.85;;;20.90;50.90;;;;;;5009153;28;20125;-59
2022/01/12 10:45:59;;;;;;;12.20;6.00;;;20.90;50.60;;;;;;5012720;28;20042;-60
2022/01/12 10:48:25;;;;;;;9.57;5.80;;;20.90;50.70;;;;;;5006245;28;20490;-59
2022/01/12 10:50:54;;;;;;;10.35;5.65;;;20.90;50.60;;;;;;4998999;28;20049;-59
2022/01/12 10:53:31;;;;;;;9.27;5.25;;;20.90;50.70;;;;;;4997519;28;20030;-59
2022/01/12 10:56:16;;;;;;;11.52;5.22;;;20.90;50.90;;;;;;4996616;28;20446;-61
2022/01/12 10:58:43;;;;;;;11.20;4.90;;;21.00;51.10;;;;;;4998064;28;20054;-59
2022/01/12 11:01:09;;;;;;;9.13;4.95;;;20.90;51.10;;;;;;4999127;28;20050;-60
2022/01/12 11:03:35;;;;;;;9.30;5.45;;;21.00;51.20;;;;;;5012301;28;20093;-59
2022/01/12 11:06:01;;;;;;;11.75;5.40;;;21.00;51.40;;;;;;5012569;28;20046;-59
2022/01/12 11:08:27;;;;;;;7.65;4.47;;;21.00;51.40;;;;;;5012001;28;20044;-59
2022/01/12 11:10:53;;;;;;;9.10;4.90;;;21.00;51.40;;;;;;5008753;28;20038;-60
2022/01/12 11:13:19;;;;;;;11.32;5.30;;;21.00;51.30;;;;;;4993112;28;20045;-60
2022/01/12 11:15:45;;;;;;;8.15;4.50;;;21.00;51.40;;;;;;5007345;28;20440;-58
2022/01/12 11:18:10;;;;;;;8.48;4.45;;;21.00;51.40;;;;;;5024663;28;20042;-59
2022/01/12 11:20:36;;;;;;;9.85;4.68;;;21.00;51.40;;;;;;5009725;28;20493;-59
2022/01/12 11:23:07;;;;;;;10.88;5.07;;;21.00;51.40;;;;;;5005650;28;20057;-58
2022/01/12 11:25:36;;;;;;;6.75;4.38;;;21.00;51.50;;;;;;5008081;28;20054;-58
2022/01/12 11:28:03;;;;;;;8.88;4.43;;;21.00;51.50;;;;;;4992606;28;20100;-58
2022/01/12 11:30:28;;;;;;;9.07;4.30;;;21.00;51.50;;;;;;4992860;28;20046;-58
2022/01/12 11:32:55;;;;;;;8.95;3.97;;;21.00;51.50;;;;;;5008550;28;20069;-59
2022/01/12 11:35:28;;;;;;;8.63;4.22;;;21.00;51.40;;;;;;4991595;28;20046;-58
2022/01/12 11:37:59;;;;;;;7.05;4.10;;;21.00;51.30;;;;;;5009419;28;20537;-58
2022/01/12 11:40:38;;;;;;;8.35;4.38;;;21.00;51.30;;;;;;5012395;28;20050;-58
2022/01/12 11:43:05;;;;;;;7.28;4.07;;;21.00;51.20;;;;;;4992921;28;20047;-59
2022/01/12 11:45:31;;;;;;;10.68;4.10;;;21.00;51.20;;;;;;4992703;28;20449;-58
2022/01/12 11:47:56;;;;;;;8.95;3.90;;;21.00;51.20;;;;;;4993145;28;20490;-58
2022/01/12 11:50:22;;;;;;;7.82;3.83;;;21.00;51.10;;;;;;4991800;28;20050;-58
2022/01/12 11:52:47;;;;;;;10.48;3.78;;;21.00;51.10;;;;;;4995222;28;20061;-58
2022/01/12 11:55:15;;;;;;;10.18;3.95;;;21.00;50.90;;;;;;5009857;28;20381;-58
2022/01/12 11:57:45;;;;;;;11.33;3.83;;;21.00;50.90;;;;;;5010487;28;20053;-59
2022/01/12 12:00:12;;;;;;;11.10;4.30;;;21.00;50.90;;;;;;5012440;28;20484;-58
2022/01/12 12:02:42;;;;;;;10.47;4.67;;;21.00;51.00;;;;;;5012480;28;20057;-58
2022/01/12 12:05:09;;;;;;;13.82;4.15;;;21.00;51.00;;;;;;5012970;28;20042;-59
2022/01/12 12:07:48;;;;;;;9.50;3.72;;;21.00;51.20;;;;;;5011919;28;20046;-59
2022/01/12 12:10:16;;;;;;;8.52;4.43;;;21.10;51.60;;;;;;5011568;28;20053;-59
2022/01/12 12:12:42;;;;;;;7.10;3.63;;;21.10;51.60;;;;;;5012507;28;20057;-59
2022/01/12 12:15:09;;;;;;;7.80;3.88;;;21.10;51.70;;;;;;5015745;28;20037;-60
2022/01/12 12:17:35;;;;;;;12.30;4.10;;;21.10;51.80;;;;;;5013638;28;20049;-59
2022/01/12 12:20:01;;;;;;;10.73;4.40;;;21.10;51.90;;;;;;5016133;28;20045;-58
2022/01/12 12:22:28;;;;;;;6.97;3.78;;;21.10;52.00;;;;;;5015435;28;20121;-58
2022/01/12 12:25:03;;;;;;;9.27;3.65;;;21.10;52.00;;;;;;5011050;28;20501;-58
2022/01/12 12:27:29;;;;;;;8.25;4.10;;;21.10;52.00;;;;;;4998794;28;20125;-59
2022/01/12 12:29:55;;;;;;;10.25;3.75;;;21.20;52.00;;;;;;4996308;28;20138;-59
2022/01/12 12:32:35;;;;;;;8.82;3.90;;;21.10;51.90;;;;;;4994724;28;20090;-59
2022/01/12 12:35:06;;;;;;;7.80;3.58;;;21.20;52.10;;;;;;4996042;28;20048;-59
2022/01/12 12:37:43;;;;;;;8.77;4.20;;;21.20;52.10;;;;;;5015132;28;20405;-59
2022/01/12 12:40:11;;;;;;;8.45;3.85;;;21.20;52.10;;;;;;5015012;28;20056;-59
2022/01/12 12:42:38;;;;;;;7.13;3.50;;;21.20;52.10;;;;;;5015393;28;20166;-59
2022/01/12 12:45:04;;;;;;;7.88;3.60;;;21.20;52.10;;;;;;5014601;28;20769;-59
2022/01/12 12:47:31;;;;;;;12.23;4.60;;;21.30;52.20;;;;;;5015296;28;20080;-59
2022/01/12 12:49:57;;;;;;;8.48;3.40;;;21.20;52.20;;;;;;5015678;28;20124;-59
2022/01/12 12:52:38;;;;;;;8.48;3.88;;;21.20;52.10;;;;;;5029390;28;20516;-59
2022/01/12 12:55:15;;;;;;;9.02;3.70;;;21.30;52.20;;;;;;5015536;28;20030;-59
2022/01/12 12:57:53;;;;;;;8.60;3.30;;;21.30;52.10;;;;;;5009018;28;20066;-59
2022/01/12 13:00:21;;;;;;;9.70;3.65;;;21.30;52.00;;;;;;5005098;28;20045;-59
2022/01/12 13:02:48;;;;;;;6.90;3.20;;;21.30;52.00;;;;;;5005965;28;20050;-59
2022/01/12 13:05:19;;;;;;;8.45;3.80;;;21.30;52.00;;;;;;5004199;28;20048;-59
2022/01/12 13:07:45;;;;;;;9.18;3.72;;;21.30;52.00;;;;;;5002620;28;20046;-59
2022/01/12 13:10:16;;;;;;;11.15;3.55;;;21.30;52.00;;;;;;5005934;28;20524;-59
2022/01/12 13:12:49;;;;;;;10.75;3.53;;;21.30;52.10;;;;;;5001935;28;20042;-59
2022/01/12 13:15:28;;;;;;;7.60;3.10;;;21.30;52.00;;;;;;5004815;28;20042;-59
2022/01/12 13:18:11;;;;;;;8.93;3.13;;;21.30;52.00;;;;;;5005662;28;20053;-59
2022/01/12 13:23:25;;;;;;;;;;;21.30;52.00;;;;;;5003256;28;20049;-60
2022/01/12 13:25:58;;;;;;;9.18;3.20;;;21.30;51.90;;;;;;5005203;28;20032;-59
2022/01/12 13:28:24;;;;;;;8.15;3.08;;;21.30;52.00;;;;;;5003321;28;20052;-60
2022/01/12 13:30:58;;;;;;;7.57;2.80;;;21.20;51.90;;;;;;5005572;28;20049;-60
2022/01/12 13:33:31;;;;;;;7.10;2.95;;;21.20;51.90;;;;;;5004399;28;20034;-60
2022/01/12 13:35:58;;;;;;;6.57;2.72;;;21.20;51.90;;;;;;5002693;28;20049;-60
2022/01/12 13:38:30;;;;;;;9.75;2.65;;;21.20;51.80;;;;;;4993350;28;20398;-61
2022/01/12 13:41:04;;;;;;;9.32;3.03;;;21.30;51.50;;;;;;5011990;28;20107;-59
2022/01/12 13:43:30;;;;;;;8.55;2.95;;;21.20;51.60;;;;;;5012131;28;20057;-59
2022/01/12 13:46:01;;;;;;;10.35;3.03;;;21.20;51.50;;;;;;5014367;28;20050;-59
2022/01/12 13:48:30;;;;;;;6.88;2.65;;;21.20;51.40;;;;;;5012340;28;20046;-59
2022/01/12 13:50:56;;;;;;;7.18;2.65;;;21.20;51.50;;;;;;5014219;28;20045;-59
2022/01/12 13:53:36;;;;;;;10.43;2.90;;;21.20;51.60;;;;;;5013764;28;20049;-59
2022/01/12 13:56:03;;;;;;;8.18;2.55;;;21.20;51.60;;;;;;5015915;28;20046;-60
2022/01/12 13:58:29;;;;;;;10.93;2.65;;;21.20;51.60;;;;;;5013318;28;20078;-60
2022/01/12 14:01:10;;;;;;;8.73;2.83;;;21.20;51.60;;;;;;5014162;28;20473;-60
2022/01/12 14:03:41;;;;;;;7.10;2.38;;;21.20;51.70;;;;;;5012933;28;20042;-60
2022/01/12 14:06:14;;;;;;;6.93;2.28;;;21.20;51.70;;;;;;5013549;28;20042;-60
2022/01/12 14:08:52;;;;;;;7.75;2.90;;;21.20;51.70;;;;;;5012648;28;20046;-60
2022/01/12 14:11:18;;;;;;;9.10;2.60;;;21.20;51.80;;;;;;5027303;28;20042;-60